sensor_id;sensor_type;location;lat;lon;timestamp;temperature;humidity
63704;SHT31;49851;53.684;10.216;2022-11-25T00:01:53;4.73;93.18
63704;SHT31;49851;53.684;10.216;2022-11-25T00:04:18;4.72;93.09
63704;SHT31;49851;53.684;10.216;2022-11-25T00:06:43;4.71;93.19
63704;SHT31;49851;53.684;10.216;2022-11-25T00:09:09;4.68;93.19
63704;SHT31;49851;53.684;10.216;2022-11-25T00:11:35;4.71;93.16
63704;SHT31;49851;53.684;10.216;2022-11-25T00:14:01;4.71;93.16
63704;SHT31;49851;53.684;10.216;2022-11-25T00:16:26;4.68;93.24
63704;SHT31;49851;53.684;10.216;2022-11-25T00:18:52;4.68;93.21
63704;SHT31;49851;53.684;10.216;2022-11-25T00:21:19;4.65;93.20
63704;SHT31;49851;53.684;10.216;2022-11-25T00:23:48;4.67;93.16
63704;SHT31;49851;53.684;10.216;2022-11-25T00:26:15;4.68;93.11
63704;SHT31;49851;53.684;10.216;2022-11-25T00:28:41;4.65;92.97
63704;SHT31;49851;53.684;10.216;2022-11-25T00:31:07;4.65;93.02
63704;SHT31;49851;53.684;10.216;2022-11-25T00:33:32;4.61;93.01
63704;SHT31;49851;53.684;10.216;2022-11-25T00:36:01;4.61;92.99
63704;SHT31;49851;53.684;10.216;2022-11-25T00:38:26;4.58;92.94
63704;SHT31;49851;53.684;10.216;2022-11-25T00:40:52;4.60;92.97
63704;SHT31;49851;53.684;10.216;2022-11-25T00:43:37;4.57;93.09
63704;SHT31;49851;53.684;10.216;2022-11-25T00:46:21;4.58;93.06
63704;SHT31;49851;53.684;10.216;2022-11-25T00:48:46;4.53;93.14
63704;SHT31;49851;53.684;10.216;2022-11-25T00:51:11;4.53;93.19
63704;SHT31;49851;53.684;10.216;2022-11-25T00:53:37;4.55;93.20
63704;SHT31;49851;53.684;10.216;2022-11-25T00:56:02;4.53;93.34
63704;SHT31;49851;53.684;10.216;2022-11-25T00:58:40;4.54;93.33
63704;SHT31;49851;53.684;10.216;2022-11-25T01:01:05;4.57;93.36
63704;SHT31;49851;53.684;10.216;2022-11-25T01:03:31;4.54;93.27
63704;SHT31;49851;53.684;10.216;2022-11-25T01:06:03;4.54;93.40
63704;SHT31;49851;53.684;10.216;2022-11-25T01:08:29;4.53;93.43
63704;SHT31;49851;53.684;10.216;2022-11-25T01:10:58;4.53;93.35
63704;SHT31;49851;53.684;10.216;2022-11-25T01:13:23;4.50;93.33
63704;SHT31;49851;53.684;10.216;2022-11-25T01:15:49;4.48;93.31
63704;SHT31;49851;53.684;10.216;2022-11-25T01:18:14;4.48;93.47
63704;SHT31;49851;53.684;10.216;2022-11-25T01:20:39;4.51;93.46
63704;SHT31;49851;53.684;10.216;2022-11-25T01:23:04;4.47;93.42
63704;SHT31;49851;53.684;10.216;2022-11-25T01:25:29;4.44;93.49
63704;SHT31;49851;53.684;10.216;2022-11-25T01:27:55;4.47;93.54
63704;SHT31;49851;53.684;10.216;2022-11-25T01:30:20;4.44;93.59
63704;SHT31;49851;53.684;10.216;2022-11-25T01:32:45;4.44;93.59
63704;SHT31;49851;53.684;10.216;2022-11-25T01:35:10;4.43;93.55
63704;SHT31;49851;53.684;10.216;2022-11-25T01:37:35;4.41;93.59
63704;SHT31;49851;53.684;10.216;2022-11-25T01:40:01;4.45;93.65
63704;SHT31;49851;53.684;10.216;2022-11-25T01:42:27;4.44;93.69
63704;SHT31;49851;53.684;10.216;2022-11-25T01:47:56;4.44;93.68
63704;SHT31;49851;53.684;10.216;2022-11-25T01:50:23;4.43;93.70
63704;SHT31;49851;53.684;10.216;2022-11-25T01:52:49;4.43;93.72
63704;SHT31;49851;53.684;10.216;2022-11-25T01:55:19;4.44;93.89
63704;SHT31;49851;53.684;10.216;2022-11-25T01:57:49;4.44;93.91
63704;SHT31;49851;53.684;10.216;2022-11-25T02:00:16;4.45;93.89
63704;SHT31;49851;53.684;10.216;2022-11-25T02:02:41;4.45;93.81
63704;SHT31;49851;53.684;10.216;2022-11-25T02:05:07;4.44;93.80
63704;SHT31;49851;53.684;10.216;2022-11-25T02:07:34;4.43;93.82
63704;SHT31;49851;53.684;10.216;2022-11-25T02:10:00;4.44;93.84
63704;SHT31;49851;53.684;10.216;2022-11-25T02:12:26;4.41;93.70
63704;SHT31;49851;53.684;10.216;2022-11-25T02:14:51;4.41;93.70
63704;SHT31;49851;53.684;10.216;2022-11-25T02:17:18;4.44;93.79
63704;SHT31;49851;53.684;10.216;2022-11-25T02:22:10;4.41;93.70
63704;SHT31;49851;53.684;10.216;2022-11-25T02:24:44;4.40;93.80
63704;SHT31;49851;53.684;10.216;2022-11-25T02:27:09;4.38;93.76
63704;SHT31;49851;53.684;10.216;2022-11-25T02:29:35;4.36;93.85
63704;SHT31;49851;53.684;10.216;2022-11-25T02:32:01;4.37;93.84
63704;SHT31;49851;53.684;10.216;2022-11-25T02:34:26;4.36;93.89
63704;SHT31;49851;53.684;10.216;2022-11-25T02:36:51;4.37;93.87
63704;SHT31;49851;53.684;10.216;2022-11-25T02:39:17;4.36;93.95
63704;SHT31;49851;53.684;10.216;2022-11-25T02:41:44;4.37;93.91
63704;SHT31;49851;53.684;10.216;2022-11-25T02:44:11;4.37;94.06
63704;SHT31;49851;53.684;10.216;2022-11-25T02:46:36;4.34;93.91
63704;SHT31;49851;53.684;10.216;2022-11-25T02:49:02;4.36;93.96
63704;SHT31;49851;53.684;10.216;2022-11-25T02:51:28;4.36;93.81
63704;SHT31;49851;53.684;10.216;2022-11-25T02:53:54;4.34;94.05
63704;SHT31;49851;53.684;10.216;2022-11-25T02:56:23;4.34;94.06
63704;SHT31;49851;53.684;10.216;2022-11-25T02:58:49;4.37;94.13
63704;SHT31;49851;53.684;10.216;2022-11-25T03:01:14;4.37;93.98
63704;SHT31;49851;53.684;10.216;2022-11-25T03:03:39;4.34;93.99
63704;SHT31;49851;53.684;10.216;2022-11-25T03:06:04;4.33;93.83
63704;SHT31;49851;53.684;10.216;2022-11-25T03:08:30;4.34;94.00
63704;SHT31;49851;53.684;10.216;2022-11-25T03:10:55;4.34;93.92
63704;SHT31;49851;53.684;10.216;2022-11-25T03:13:20;4.34;94.05
63704;SHT31;49851;53.684;10.216;2022-11-25T03:15:45;4.34;94.11
63704;SHT31;49851;53.684;10.216;2022-11-25T03:18:10;4.33;94.05
63704;SHT31;49851;53.684;10.216;2022-11-25T03:20:36;4.34;94.18
63704;SHT31;49851;53.684;10.216;2022-11-25T03:23:01;4.36;94.11
63704;SHT31;49851;53.684;10.216;2022-11-25T03:25:26;4.36;94.18
63704;SHT31;49851;53.684;10.216;2022-11-25T03:27:52;4.36;94.18
63704;SHT31;49851;53.684;10.216;2022-11-25T03:30:18;4.37;94.19
63704;SHT31;49851;53.684;10.216;2022-11-25T03:32:44;4.37;93.99
63704;SHT31;49851;53.684;10.216;2022-11-25T03:35:09;4.34;93.81
63704;SHT31;49851;53.684;10.216;2022-11-25T03:37:35;4.36;93.89
63704;SHT31;49851;53.684;10.216;2022-11-25T03:40:00;4.36;93.89
63704;SHT31;49851;53.684;10.216;2022-11-25T03:42:26;4.33;93.86
63704;SHT31;49851;53.684;10.216;2022-11-25T03:44:51;4.33;93.99
63704;SHT31;49851;53.684;10.216;2022-11-25T03:47:16;4.33;93.85
63704;SHT31;49851;53.684;10.216;2022-11-25T03:49:41;4.33;93.82
63704;SHT31;49851;53.684;10.216;2022-11-25T03:52:07;4.30;93.81
63704;SHT31;49851;53.684;10.216;2022-11-25T03:54:32;4.32;93.89
63704;SHT31;49851;53.684;10.216;2022-11-25T03:56:57;4.32;93.85
63704;SHT31;49851;53.684;10.216;2022-11-25T03:59:23;4.29;93.94
63704;SHT31;49851;53.684;10.216;2022-11-25T04:01:48;4.30;94.03
63704;SHT31;49851;53.684;10.216;2022-11-25T04:04:13;4.27;93.97
63704;SHT31;49851;53.684;10.216;2022-11-25T04:06:38;4.30;94.03
63704;SHT31;49851;53.684;10.216;2022-11-25T04:09:05;4.30;94.02
63704;SHT31;49851;53.684;10.216;2022-11-25T04:11:30;4.26;93.96
63704;SHT31;49851;53.684;10.216;2022-11-25T04:14:16;4.27;93.96
63704;SHT31;49851;53.684;10.216;2022-11-25T04:16:41;4.24;93.97
63704;SHT31;49851;53.684;10.216;2022-11-25T04:19:07;4.26;93.91
63704;SHT31;49851;53.684;10.216;2022-11-25T04:21:32;4.26;93.94
63704;SHT31;49851;53.684;10.216;2022-11-25T04:23:57;4.24;94.01
63704;SHT31;49851;53.684;10.216;2022-11-25T04:26:23;4.23;94.03
63704;SHT31;49851;53.684;10.216;2022-11-25T04:28:48;4.24;94.02
63704;SHT31;49851;53.684;10.216;2022-11-25T04:31:13;4.26;94.08
63704;SHT31;49851;53.684;10.216;2022-11-25T04:33:38;4.21;94.04
63704;SHT31;49851;53.684;10.216;2022-11-25T04:36:03;4.21;94.11
63704;SHT31;49851;53.684;10.216;2022-11-25T04:38:29;4.21;94.06
63704;SHT31;49851;53.684;10.216;2022-11-25T04:40:54;4.20;94.13
63704;SHT31;49851;53.684;10.216;2022-11-25T04:43:19;4.20;94.05
63704;SHT31;49851;53.684;10.216;2022-11-25T04:45:46;4.23;94.10
63704;SHT31;49851;53.684;10.216;2022-11-25T04:48:11;4.20;93.99
63704;SHT31;49851;53.684;10.216;2022-11-25T04:50:36;4.17;94.00
63704;SHT31;49851;53.684;10.216;2022-11-25T04:53:01;4.19;94.00
63704;SHT31;49851;53.684;10.216;2022-11-25T04:55:27;4.19;94.10
63704;SHT31;49851;53.684;10.216;2022-11-25T04:57:52;4.17;94.03
63704;SHT31;49851;53.684;10.216;2022-11-25T05:00:17;4.17;93.99
63704;SHT31;49851;53.684;10.216;2022-11-25T05:02:43;4.16;94.02
63704;SHT31;49851;53.684;10.216;2022-11-25T05:05:08;4.17;94.01
63704;SHT31;49851;53.684;10.216;2022-11-25T05:07:33;4.17;94.03
63704;SHT31;49851;53.684;10.216;2022-11-25T05:09:58;4.17;94.02
63704;SHT31;49851;53.684;10.216;2022-11-25T05:12:24;4.16;94.00
63704;SHT31;49851;53.684;10.216;2022-11-25T05:14:50;4.16;94.01
63704;SHT31;49851;53.684;10.216;2022-11-25T05:17:23;4.13;94.11
63704;SHT31;49851;53.684;10.216;2022-11-25T05:19:48;4.13;94.06
63704;SHT31;49851;53.684;10.216;2022-11-25T05:22:15;4.14;94.11
63704;SHT31;49851;53.684;10.216;2022-11-25T05:24:40;4.14;94.11
63704;SHT31;49851;53.684;10.216;2022-11-25T05:27:06;4.13;94.10
63704;SHT31;49851;53.684;10.216;2022-11-25T05:29:31;4.11;94.10
63704;SHT31;49851;53.684;10.216;2022-11-25T05:31:56;4.11;94.04
63704;SHT31;49851;53.684;10.216;2022-11-25T05:34:22;4.14;94.06
63704;SHT31;49851;53.684;10.216;2022-11-25T05:36:47;4.13;94.09
63704;SHT31;49851;53.684;10.216;2022-11-25T05:39:12;4.11;94.05
63704;SHT31;49851;53.684;10.216;2022-11-25T05:41:37;4.11;94.05
63704;SHT31;49851;53.684;10.216;2022-11-25T05:44:03;4.09;94.06
63704;SHT31;49851;53.684;10.216;2022-11-25T05:46:29;4.07;94.14
63704;SHT31;49851;53.684;10.216;2022-11-25T05:48:54;4.07;94.03
63704;SHT31;49851;53.684;10.216;2022-11-25T05:51:20;4.03;94.12
63704;SHT31;49851;53.684;10.216;2022-11-25T05:53:45;4.03;94.12
63704;SHT31;49851;53.684;10.216;2022-11-25T05:56:11;4.03;94.08
63704;SHT31;49851;53.684;10.216;2022-11-25T05:58:36;4.00;94.11
63704;SHT31;49851;53.684;10.216;2022-11-25T06:01:04;4.02;94.14
63704;SHT31;49851;53.684;10.216;2022-11-25T06:03:30;3.99;94.13
63704;SHT31;49851;53.684;10.216;2022-11-25T06:05:56;4.00;94.20
63704;SHT31;49851;53.684;10.216;2022-11-25T06:08:21;4.00;94.19
63704;SHT31;49851;53.684;10.216;2022-11-25T06:10:46;4.00;94.21
63704;SHT31;49851;53.684;10.216;2022-11-25T06:13:12;4.00;94.25
63704;SHT31;49851;53.684;10.216;2022-11-25T06:15:40;4.00;94.20
63704;SHT31;49851;53.684;10.216;2022-11-25T06:18:07;4.03;94.24
63704;SHT31;49851;53.684;10.216;2022-11-25T06:20:32;4.00;94.29
63704;SHT31;49851;53.684;10.216;2022-11-25T06:22:57;4.03;94.29
63704;SHT31;49851;53.684;10.216;2022-11-25T06:25:23;4.05;94.31
63704;SHT31;49851;53.684;10.216;2022-11-25T06:27:48;4.05;94.27
63704;SHT31;49851;53.684;10.216;2022-11-25T06:30:14;4.06;94.33
63704;SHT31;49851;53.684;10.216;2022-11-25T06:32:39;4.07;94.37
63704;SHT31;49851;53.684;10.216;2022-11-25T06:35:04;4.06;94.31
63704;SHT31;49851;53.684;10.216;2022-11-25T06:37:30;4.06;94.29
63704;SHT31;49851;53.684;10.216;2022-11-25T06:39:56;4.09;94.34
63704;SHT31;49851;53.684;10.216;2022-11-25T06:42:21;4.07;94.31
63704;SHT31;49851;53.684;10.216;2022-11-25T06:44:46;4.06;94.24
63704;SHT31;49851;53.684;10.216;2022-11-25T06:47:11;4.07;94.32
63704;SHT31;49851;53.684;10.216;2022-11-25T06:49:37;4.06;94.26
63704;SHT31;49851;53.684;10.216;2022-11-25T06:52:02;4.09;94.24
63704;SHT31;49851;53.684;10.216;2022-11-25T06:54:27;4.10;94.18
63704;SHT31;49851;53.684;10.216;2022-11-25T06:56:52;4.10;94.22
63704;SHT31;49851;53.684;10.216;2022-11-25T06:59:18;4.11;94.20
63704;SHT31;49851;53.684;10.216;2022-11-25T07:01:44;4.09;94.25
63704;SHT31;49851;53.684;10.216;2022-11-25T07:04:09;4.11;94.32
63704;SHT31;49851;53.684;10.216;2022-11-25T07:06:34;4.16;94.28
63704;SHT31;49851;53.684;10.216;2022-11-25T07:08:59;4.14;94.18
63704;SHT31;49851;53.684;10.216;2022-11-25T07:11:26;4.11;94.05
63704;SHT31;49851;53.684;10.216;2022-11-25T07:13:55;4.13;94.05
63704;SHT31;49851;53.684;10.216;2022-11-25T07:16:21;4.11;94.06
63704;SHT31;49851;53.684;10.216;2022-11-25T07:18:46;4.09;93.92
63704;SHT31;49851;53.684;10.216;2022-11-25T07:21:16;4.09;93.89
63704;SHT31;49851;53.684;10.216;2022-11-25T07:23:42;4.10;93.98
63704;SHT31;49851;53.684;10.216;2022-11-25T07:26:13;4.07;94.00
63704;SHT31;49851;53.684;10.216;2022-11-25T07:28:38;4.07;93.92
63704;SHT31;49851;53.684;10.216;2022-11-25T07:31:18;4.09;93.92
63704;SHT31;49851;53.684;10.216;2022-11-25T07:33:44;4.07;93.98
63704;SHT31;49851;53.684;10.216;2022-11-25T07:36:09;4.13;93.93
63704;SHT31;49851;53.684;10.216;2022-11-25T07:38:35;4.14;93.91
63704;SHT31;49851;53.684;10.216;2022-11-25T07:43:30;4.17;93.80
63704;SHT31;49851;53.684;10.216;2022-11-25T07:45:55;4.17;93.82
63704;SHT31;49851;53.684;10.216;2022-11-25T07:48:20;4.21;93.97
63704;SHT31;49851;53.684;10.216;2022-11-25T07:50:46;4.20;93.86
63704;SHT31;49851;53.684;10.216;2022-11-25T07:53:14;4.17;93.85
63704;SHT31;49851;53.684;10.216;2022-11-25T07:55:39;4.20;93.96
63704;SHT31;49851;53.684;10.216;2022-11-25T07:58:04;4.16;93.90
63704;SHT31;49851;53.684;10.216;2022-11-25T08:00:29;4.17;94.01
63704;SHT31;49851;53.684;10.216;2022-11-25T08:02:55;4.14;93.96
63704;SHT31;49851;53.684;10.216;2022-11-25T08:05:20;4.17;93.99
63704;SHT31;49851;53.684;10.216;2022-11-25T08:07:45;4.14;94.01
63704;SHT31;49851;53.684;10.216;2022-11-25T08:10:10;4.16;94.05
63704;SHT31;49851;53.684;10.216;2022-11-25T08:12:36;4.19;94.12
63704;SHT31;49851;53.684;10.216;2022-11-25T08:15:01;4.19;94.09
63704;SHT31;49851;53.684;10.216;2022-11-25T08:17:26;4.20;94.16
63704;SHT31;49851;53.684;10.216;2022-11-25T08:19:53;4.20;94.08
63704;SHT31;49851;53.684;10.216;2022-11-25T08:22:19;4.19;94.10
63704;SHT31;49851;53.684;10.216;2022-11-25T08:24:44;4.20;94.36
63704;SHT31;49851;53.684;10.216;2022-11-25T08:27:09;4.24;94.91
63704;SHT31;49851;53.684;10.216;2022-11-25T08:29:35;4.26;94.65
63704;SHT31;49851;53.684;10.216;2022-11-25T08:32:00;4.26;94.81
63704;SHT31;49851;53.684;10.216;2022-11-25T08:34:25;4.29;94.72
63704;SHT31;49851;53.684;10.216;2022-11-25T08:36:50;4.33;94.77
63704;SHT31;49851;53.684;10.216;2022-11-25T08:39:17;4.34;95.04
63704;SHT31;49851;53.684;10.216;2022-11-25T08:41:42;4.36;94.99
63704;SHT31;49851;53.684;10.216;2022-11-25T08:44:07;4.40;94.97
63704;SHT31;49851;53.684;10.216;2022-11-25T08:46:34;4.37;95.03
63704;SHT31;49851;53.684;10.216;2022-11-25T08:49:01;4.40;94.94
63704;SHT31;49851;53.684;10.216;2022-11-25T08:51:27;4.50;95.18
63704;SHT31;49851;53.684;10.216;2022-11-25T08:53:52;4.51;95.20
63704;SHT31;49851;53.684;10.216;2022-11-25T08:56:19;4.53;95.49
63704;SHT31;49851;53.684;10.216;2022-11-25T08:58:44;4.54;95.20
63704;SHT31;49851;53.684;10.216;2022-11-25T09:01:10;4.57;95.14
63704;SHT31;49851;53.684;10.216;2022-11-25T09:03:37;4.57;94.93
63704;SHT31;49851;53.684;10.216;2022-11-25T09:06:03;4.57;94.89
63704;SHT31;49851;53.684;10.216;2022-11-25T09:08:29;4.60;94.90
63704;SHT31;49851;53.684;10.216;2022-11-25T09:10:55;4.60;94.98
63704;SHT31;49851;53.684;10.216;2022-11-25T09:13:20;4.64;94.97
63704;SHT31;49851;53.684;10.216;2022-11-25T09:15:45;4.68;94.90
63704;SHT31;49851;53.684;10.216;2022-11-25T09:18:11;4.68;95.05
63704;SHT31;49851;53.684;10.216;2022-11-25T09:20:37;4.75;94.95
63704;SHT31;49851;53.684;10.216;2022-11-25T09:23:03;4.76;95.19
63704;SHT31;49851;53.684;10.216;2022-11-25T09:25:28;4.80;95.13
63704;SHT31;49851;53.684;10.216;2022-11-25T09:27:54;4.82;95.04
63704;SHT31;49851;53.684;10.216;2022-11-25T09:30:19;4.96;95.42
63704;SHT31;49851;53.684;10.216;2022-11-25T09:32:46;4.92;95.10
63704;SHT31;49851;53.684;10.216;2022-11-25T09:35:12;4.93;95.04
63704;SHT31;49851;53.684;10.216;2022-11-25T09:37:37;4.92;95.01
63704;SHT31;49851;53.684;10.216;2022-11-25T09:40:03;4.95;95.08
63704;SHT31;49851;53.684;10.216;2022-11-25T09:42:33;4.99;95.03
63704;SHT31;49851;53.684;10.216;2022-11-25T09:45:37;5.16;95.50
63704;SHT31;49851;53.684;10.216;2022-11-25T09:48:36;5.22;95.84
63704;SHT31;49851;53.684;10.216;2022-11-25T09:53:57;5.20;95.44
63704;SHT31;49851;53.684;10.216;2022-11-25T09:56:27;5.22;95.32
63704;SHT31;49851;53.684;10.216;2022-11-25T09:58:55;5.24;95.42
63704;SHT31;49851;53.684;10.216;2022-11-25T10:01:24;5.28;95.40
63704;SHT31;49851;53.684;10.216;2022-11-25T10:03:52;5.34;95.57
63704;SHT31;49851;53.684;10.216;2022-11-25T10:06:27;5.42;95.67
63704;SHT31;49851;53.684;10.216;2022-11-25T10:16:48;5.72;96.77
63704;SHT31;49851;53.684;10.216;2022-11-25T10:19:13;5.62;95.95
63704;SHT31;49851;53.684;10.216;2022-11-25T10:21:39;5.73;96.55
63704;SHT31;49851;53.684;10.216;2022-11-25T10:24:05;5.65;95.92
63704;SHT31;49851;53.684;10.216;2022-11-25T10:26:34;5.73;96.08
63704;SHT31;49851;53.684;10.216;2022-11-25T10:31:38;5.80;96.22
63704;SHT31;49851;53.684;10.216;2022-11-25T10:34:15;5.87;96.15
63704;SHT31;49851;53.684;10.216;2022-11-25T10:36:43;5.93;96.52
63704;SHT31;49851;53.684;10.216;2022-11-25T10:39:12;5.94;96.47
63704;SHT31;49851;53.684;10.216;2022-11-25T10:51:51;6.24;97.37
63704;SHT31;49851;53.684;10.216;2022-11-25T10:54:23;6.27;97.48
63704;SHT31;49851;53.684;10.216;2022-11-25T10:59:22;6.14;96.90
63704;SHT31;49851;53.684;10.216;2022-11-25T11:01:48;6.24;97.10
63704;SHT31;49851;53.684;10.216;2022-11-25T11:04:14;6.25;97.27
63704;SHT31;49851;53.684;10.216;2022-11-25T11:06:44;6.32;97.41
63704;SHT31;49851;53.684;10.216;2022-11-25T11:11:53;6.14;96.14
63704;SHT31;49851;53.684;10.216;2022-11-25T11:14:19;6.24;96.72
63704;SHT31;49851;53.684;10.216;2022-11-25T11:16:51;6.35;97.04
63704;SHT31;49851;53.684;10.216;2022-11-25T11:19:24;6.32;96.50
63704;SHT31;49851;53.684;10.216;2022-11-25T11:21:50;6.31;96.36
63704;SHT31;49851;53.684;10.216;2022-11-25T11:24:28;6.34;96.47
63704;SHT31;49851;53.684;10.216;2022-11-25T11:29:27;6.46;96.85
63704;SHT31;49851;53.684;10.216;2022-11-25T11:31:55;6.65;97.41
63704;SHT31;49851;53.684;10.216;2022-11-25T11:37:08;6.65;97.37
63704;SHT31;49851;53.684;10.216;2022-11-25T11:42:48;6.80;97.75
63704;SHT31;49851;53.684;10.216;2022-11-25T11:55:27;6.90;98.03
63704;SHT31;49851;53.684;10.216;2022-11-25T12:00:24;6.87;97.94
63704;SHT31;49851;53.684;10.216;2022-11-25T12:02:58;6.83;97.82
63704;SHT31;49851;53.684;10.216;2022-11-25T12:05:28;6.83;97.75
63704;SHT31;49851;53.684;10.216;2022-11-25T12:10:28;6.91;97.75
63704;SHT31;49851;53.684;10.216;2022-11-25T12:13:10;6.82;97.10
63704;SHT31;49851;53.684;10.216;2022-11-25T12:18:16;6.96;97.51
63704;SHT31;49851;53.684;10.216;2022-11-25T12:20:46;6.91;97.24
63704;SHT31;49851;53.684;10.216;2022-11-25T12:23:28;6.90;97.13
63704;SHT31;49851;53.684;10.216;2022-11-25T12:25:57;6.83;96.98
63704;SHT31;49851;53.684;10.216;2022-11-25T12:28:27;6.94;97.13
63704;SHT31;49851;53.684;10.216;2022-11-25T12:33:51;6.97;97.01
63704;SHT31;49851;53.684;10.216;2022-11-25T12:36:17;6.99;96.99
63704;SHT31;49851;53.684;10.216;2022-11-25T12:38:54;6.93;96.84
63704;SHT31;49851;53.684;10.216;2022-11-25T12:46:40;7.21;97.66
63704;SHT31;49851;53.684;10.216;2022-11-25T12:54:36;7.12;97.22
63704;SHT31;49851;53.684;10.216;2022-11-25T13:04:53;7.25;97.56
63704;SHT31;49851;53.684;10.216;2022-11-25T13:07:23;7.29;97.86
63704;SHT31;49851;53.684;10.216;2022-11-25T13:09:54;7.41;97.97
63704;SHT31;49851;53.684;10.216;2022-11-25T13:17:14;7.35;97.83
63704;SHT31;49851;53.684;10.216;2022-11-25T13:19:40;7.35;97.86
63704;SHT31;49851;53.684;10.216;2022-11-25T13:24:47;7.32;97.95
63704;SHT31;49851;53.684;10.216;2022-11-25T13:29:53;7.35;97.51
63704;SHT31;49851;53.684;10.216;2022-11-25T13:32:35;7.41;97.60
63704;SHT31;49851;53.684;10.216;2022-11-25T13:37:45;7.53;97.76
63704;SHT31;49851;53.684;10.216;2022-11-25T13:42:45;7.59;97.86
63704;SHT31;49851;53.684;10.216;2022-11-25T13:47:54;7.59;97.75
63704;SHT31;49851;53.684;10.216;2022-11-25T13:50:27;7.76;97.98
63704;SHT31;49851;53.684;10.216;2022-11-25T13:52:57;7.73;97.79
63704;SHT31;49851;53.684;10.216;2022-11-25T13:55:25;7.76;97.77
63704;SHT31;49851;53.684;10.216;2022-11-25T13:58:02;7.80;97.76
63704;SHT31;49851;53.684;10.216;2022-11-25T14:21:23;7.87;97.40
63704;SHT31;49851;53.684;10.216;2022-11-25T14:23:57;7.86;97.25
63704;SHT31;49851;53.684;10.216;2022-11-25T14:26:30;7.88;97.20
63704;SHT31;49851;53.684;10.216;2022-11-25T14:31:32;8.04;97.55
63704;SHT31;49851;53.684;10.216;2022-11-25T14:34:02;8.08;97.46
63704;SHT31;49851;53.684;10.216;2022-11-25T14:36:39;8.01;97.42
63704;SHT31;49851;53.684;10.216;2022-11-25T14:39:18;7.98;97.37
63704;SHT31;49851;53.684;10.216;2022-11-25T14:42:04;7.88;97.12
63704;SHT31;49851;53.684;10.216;2022-11-25T14:44:38;7.83;96.96
63704;SHT31;49851;53.684;10.216;2022-11-25T14:47:04;7.83;96.89
63704;SHT31;49851;53.684;10.216;2022-11-25T14:52:25;7.91;96.71
63704;SHT31;49851;53.684;10.216;2022-11-25T14:54:52;7.81;96.62
63704;SHT31;49851;53.684;10.216;2022-11-25T14:57:20;7.81;96.76
63704;SHT31;49851;53.684;10.216;2022-11-25T14:59:45;7.76;96.66
63704;SHT31;49851;53.684;10.216;2022-11-25T15:04:48;7.74;96.72
63704;SHT31;49851;53.684;10.216;2022-11-25T15:07:18;7.74;96.61
63704;SHT31;49851;53.684;10.216;2022-11-25T15:09:44;7.73;96.73
63704;SHT31;49851;53.684;10.216;2022-11-25T15:12:13;7.74;96.69
63704;SHT31;49851;53.684;10.216;2022-11-25T15:14:41;7.73;96.60
63704;SHT31;49851;53.684;10.216;2022-11-25T15:17:08;7.83;97.02
63704;SHT31;49851;53.684;10.216;2022-11-25T15:19:34;7.91;97.30
63704;SHT31;49851;53.684;10.216;2022-11-25T15:22:01;7.87;97.09
63704;SHT31;49851;53.684;10.216;2022-11-25T15:24:27;7.84;97.15
63704;SHT31;49851;53.684;10.216;2022-11-25T15:26:54;7.80;97.06
63704;SHT31;49851;53.684;10.216;2022-11-25T15:29:20;7.77;97.08
63704;SHT31;49851;53.684;10.216;2022-11-25T15:31:47;7.77;97.11
63704;SHT31;49851;53.684;10.216;2022-11-25T15:34:12;7.77;97.10
63704;SHT31;49851;53.684;10.216;2022-11-25T15:36:38;7.86;97.39
63704;SHT31;49851;53.684;10.216;2022-11-25T15:39:22;8.05;97.93
63704;SHT31;49851;53.684;10.216;2022-11-25T15:41:53;8.14;98.23
63704;SHT31;49851;53.684;10.216;2022-11-25T15:44:26;8.11;98.15
63704;SHT31;49851;53.684;10.216;2022-11-25T15:47:03;7.98;97.71
63704;SHT31;49851;53.684;10.216;2022-11-25T15:49:29;8.11;98.30
63704;SHT31;49851;53.684;10.216;2022-11-25T15:51:57;8.21;98.48
63704;SHT31;49851;53.684;10.216;2022-11-25T15:56:55;8.21;98.42
63704;SHT31;49851;53.684;10.216;2022-11-25T16:02:01;8.09;98.25
63704;SHT31;49851;53.684;10.216;2022-11-25T16:04:26;8.15;98.41
63704;SHT31;49851;53.684;10.216;2022-11-25T16:06:52;7.95;97.76
63704;SHT31;49851;53.684;10.216;2022-11-25T16:09:21;7.90;97.86
63704;SHT31;49851;53.684;10.216;2022-11-25T16:11:47;7.94;98.17
63704;SHT31;49851;53.684;10.216;2022-11-25T16:14:15;8.02;98.45
63704;SHT31;49851;53.684;10.216;2022-11-25T16:16:41;8.01;98.50
63704;SHT31;49851;53.684;10.216;2022-11-25T16:26:34;8.09;98.41
63704;SHT31;49851;53.684;10.216;2022-11-25T16:29:01;8.09;98.08
63704;SHT31;49851;53.684;10.216;2022-11-25T16:31:32;8.28;98.74
63704;SHT31;49851;53.684;10.216;2022-11-25T16:33:59;8.38;98.91
63704;SHT31;49851;53.684;10.216;2022-11-25T16:36:25;8.40;99.04
63704;SHT31;49851;53.684;10.216;2022-11-25T16:38:51;8.52;99.21
63704;SHT31;49851;53.684;10.216;2022-11-25T16:41:21;8.48;99.02
63704;SHT31;49851;53.684;10.216;2022-11-25T16:43:47;8.46;99.08
63704;SHT31;49851;53.684;10.216;2022-11-25T16:46:13;8.31;98.80
63704;SHT31;49851;53.684;10.216;2022-11-25T16:48:39;8.33;98.97
63704;SHT31;49851;53.684;10.216;2022-11-25T16:51:07;8.42;98.95
63704;SHT31;49851;53.684;10.216;2022-11-25T16:53:37;8.38;98.78
63704;SHT31;49851;53.684;10.216;2022-11-25T16:56:02;8.32;98.63
63704;SHT31;49851;53.684;10.216;2022-11-25T16:58:28;8.32;98.54
63704;SHT31;49851;53.684;10.216;2022-11-25T17:00:54;8.33;98.52
63704;SHT31;49851;53.684;10.216;2022-11-25T17:03:20;8.29;98.62
63704;SHT31;49851;53.684;10.216;2022-11-25T17:05:48;8.38;98.77
63704;SHT31;49851;53.684;10.216;2022-11-25T17:08:13;8.35;98.65
63704;SHT31;49851;53.684;10.216;2022-11-25T17:10:39;8.25;98.50
63704;SHT31;49851;53.684;10.216;2022-11-25T17:13:05;8.33;98.57
63704;SHT31;49851;53.684;10.216;2022-11-25T17:15:34;8.35;98.51
63704;SHT31;49851;53.684;10.216;2022-11-25T17:18:00;8.28;98.32
63704;SHT31;49851;53.684;10.216;2022-11-25T17:20:26;8.24;98.20
63704;SHT31;49851;53.684;10.216;2022-11-25T17:22:52;8.32;98.33
63704;SHT31;49851;53.684;10.216;2022-11-25T17:25:18;8.31;98.38
63704;SHT31;49851;53.684;10.216;2022-11-25T17:27:45;8.28;98.42
63704;SHT31;49851;53.684;10.216;2022-11-25T17:30:20;8.21;98.32
63704;SHT31;49851;53.684;10.216;2022-11-25T17:32:46;8.20;98.36
63704;SHT31;49851;53.684;10.216;2022-11-25T17:35:15;8.14;98.46
63704;SHT31;49851;53.684;10.216;2022-11-25T17:37:41;8.20;98.54
63704;SHT31;49851;53.684;10.216;2022-11-25T17:40:06;8.15;98.45
63704;SHT31;49851;53.684;10.216;2022-11-25T17:42:32;8.09;98.40
63704;SHT31;49851;53.684;10.216;2022-11-25T17:44:57;8.12;98.45
63704;SHT31;49851;53.684;10.216;2022-11-25T17:47:23;8.20;98.38
63704;SHT31;49851;53.684;10.216;2022-11-25T17:49:49;8.20;98.33
63704;SHT31;49851;53.684;10.216;2022-11-25T17:52:14;8.20;98.41
63704;SHT31;49851;53.684;10.216;2022-11-25T17:54:40;8.24;98.46